Time;durP1;ratioP1;P1;durP2;ratioP2;P2;SDS_P1;SDS_P2;PMS_P1;PMS_P2;Temp;Humidity;BMP_temperature;BMP_pressure;BME280_temperature;BME280_humidity;BME280_pressure;Samples;Min_cycle;Max_cycle;Signal;HPM_P1;HPM_P2
2022/08/08 00:01:36;;;;;;;9.85;5.93;;;;;;;;;;5057813;28;20032;-70
2022/08/08 00:04:21;;;;;;;9.35;5.22;;;;;;;;;;5070677;28;20055;-71
2022/08/08 00:07:05;;;;;;;7.45;5.30;;;;;;;;;;5092450;28;20093;-70
2022/08/08 00:09:53;;;;;;;10.00;5.47;;;;;;;;;;5092336;28;20039;-72
2022/08/08 00:12:23;;;;;;;9.13;5.55;;;;;;;;;;5074386;28;20123;-72
2022/08/08 00:14:52;;;;;;;7.00;4.60;;;;;;;;;;5074147;28;20081;-72
2022/08/08 00:17:24;;;;;;;7.03;3.83;;;;;;;;;;5074595;28;20076;-72
2022/08/08 00:20:00;;;;;;;7.50;4.05;;;;;;;;;;5057344;28;20047;-70
2022/08/08 00:22:39;;;;;;;6.22;3.97;;;;;;;;;;5074068;28;20044;-70
2022/08/08 00:25:07;;;;;;;8.57;5.32;;;;;;;;;;5058043;28;20531;-70
2022/08/08 00:27:35;;;;;;;7.47;4.50;;;;;;;;;;5079177;28;20047;-72
2022/08/08 00:30:06;;;;;;;5.45;3.85;;;;;;;;;;5098838;28;20420;-71
2022/08/08 00:32:32;;;;;;;6.15;4.22;;;;;;;;;;5077595;28;20036;-71
2022/08/08 00:35:12;;;;;;;6.32;4.65;;;;;;;;;;5057395;28;20075;-71
2022/08/08 00:37:38;;;;;;;4.80;3.50;;;;;;;;;;5092112;28;20047;-72
2022/08/08 00:40:19;;;;;;;6.78;4.18;;;;;;;;;;5074078;28;20143;-72
2022/08/08 00:42:56;;;;;;;4.90;3.83;;;;;;;;;;5091936;28;20036;-72
2022/08/08 00:45:31;;;;;;;6.30;3.85;;;;;;;;;;5073896;28;20051;-72
2022/08/08 00:48:01;;;;;;;8.52;4.57;;;;;;;;;;5057908;28;20043;-72
2022/08/08 00:50:45;;;;;;;8.55;4.90;;;;;;;;;;5050727;28;20052;-72
2022/08/08 00:53:34;;;;;;;8.32;4.78;;;;;;;;;;5062327;28;20532;-72
2022/08/08 00:56:10;;;;;;;7.57;4.93;;;;;;;;;;5073757;28;20291;-72
2022/08/08 00:58:39;;;;;;;7.47;5.35;;;;;;;;;;5073532;28;20044;-72
2022/08/08 01:01:21;;;;;;;7.93;5.28;;;;;;;;;;5060579;28;20045;-72
2022/08/08 01:04:06;;;;;;;6.93;5.25;;;;;;;;;;5078803;28;20043;-71
2022/08/08 01:06:41;;;;;;;9.02;5.10;;;;;;;;;;5091769;28;20044;-72
2022/08/08 01:09:10;;;;;;;7.60;4.83;;;;;;;;;;5091835;28;20043;-71
2022/08/08 01:11:55;;;;;;;7.25;5.13;;;;;;;;;;5073464;28;20083;-71
2022/08/08 01:14:39;;;;;;;11.57;5.43;;;;;;;;;;5077689;28;20488;-71
2022/08/08 01:17:17;;;;;;;5.38;4.03;;;;;;;;;;5077852;28;20477;-71
2022/08/08 01:19:52;;;;;;;51.25;5.75;;;;;;;;;;5060442;28;20089;-71
2022/08/08 01:22:28;;;;;;;10.57;6.53;;;;;;;;;;5095629;28;20496;-71
2022/08/08 01:25:12;;;;;;;7.60;5.53;;;;;;;;;;5077282;28;20138;-72
2022/08/08 01:27:44;;;;;;;10.20;6.45;;;;;;;;;;5089075;28;20035;-72
2022/08/08 01:30:10;;;;;;;8.65;6.20;;;;;;;;;;5075628;28;20509;-72
2022/08/08 01:32:36;;;;;;;8.75;6.32;;;;;;;;;;5076702;28;20435;-72
2022/08/08 01:35:20;;;;;;;8.98;6.93;;;;;;;;;;5076897;28;20040;-72
2022/08/08 01:38:04;;;;;;;10.93;7.07;;;;;;;;;;5088656;28;20079;-72
2022/08/08 01:40:42;;;;;;;8.63;6.60;;;;;;;;;;5089881;28;20074;-70
2022/08/08 01:43:19;;;;;;;9.98;6.57;;;;;;;;;;5095504;28;20040;-70
2022/08/08 01:45:48;;;;;;;8.73;6.38;;;;;;;;;;5074522;28;20039;-71
2022/08/08 01:48:18;;;;;;;10.40;7.68;;;;;;;;;;5045309;28;20051;-70
2022/08/08 01:50:44;;;;;;;10.30;6.72;;;;;;;;;;5071237;28;20044;-70
2022/08/08 01:53:36;;;;;;;9.25;6.55;;;;;;;;;;5076946;28;20408;-70
2022/08/08 01:56:23;;;;;;;9.05;6.72;;;;;;;;;;5094787;28;20036;-72
2022/08/08 01:59:08;;;;;;;9.88;6.18;;;;;;;;;;5076350;28;20055;-70
2022/08/08 02:01:54;;;;;;;8.27;6.22;;;;;;;;;;5093432;28;20040;-70
2022/08/08 02:04:28;;;;;;;11.02;8.10;;;;;;;;;;5105532;28;20482;-71
2022/08/08 02:07:02;;;;;;;8.50;6.70;;;;;;;;;;5088582;28;20072;-72
2022/08/08 02:09:28;;;;;;;7.68;6.00;;;;;;;;;;5075208;28;20447;-71
2022/08/08 02:11:55;;;;;;;7.38;5.78;;;;;;;;;;5059747;28;20086;-70
2022/08/08 02:14:21;;;;;;;8.75;5.50;;;;;;;;;;5076973;28;20072;-71
2022/08/08 02:17:05;;;;;;;8.50;5.28;;;;;;;;;;5058104;28;20045;-70
2022/08/08 02:19:41;;;;;;;9.23;6.20;;;;;;;;;;5074129;28;20050;-70
2022/08/08 02:25:01;;;;;;;8.27;6.25;;;;;;;;;;5058996;28;20447;-71
2022/08/08 02:27:32;;;;;;;8.65;6.05;;;;;;;;;;5081727;28;20108;-71
2022/08/08 02:30:07;;;;;;;7.38;5.88;;;;;;;;;;5069780;28;20547;-72
2022/08/08 02:32:45;;;;;;;9.80;6.30;;;;;;;;;;5058525;28;20473;-72
2022/08/08 02:35:11;;;;;;;7.70;5.82;;;;;;;;;;5078466;28;20047;-72
2022/08/08 02:37:53;;;;;;;11.20;6.72;;;;;;;;;;5076955;28;20063;-72
2022/08/08 02:40:22;;;;;;;7.85;5.45;;;;;;;;;;5094286;28;20043;-72
2022/08/08 02:43:10;;;;;;;7.85;5.20;;;;;;;;;;5093907;28;20065;-72
2022/08/08 02:45:36;;;;;;;7.78;4.95;;;;;;;;;;5075853;28;20484;-70
2022/08/08 02:48:21;;;;;;;6.45;4.53;;;;;;;;;;5093810;28;20552;-70
2022/08/08 02:50:53;;;;;;;10.00;5.00;;;;;;;;;;5075104;28;20047;-71
2022/08/08 02:53:19;;;;;;;11.02;6.57;;;;;;;;;;5093878;28;20070;-70
2022/08/08 02:55:48;;;;;;;7.07;5.40;;;;;;;;;;5058286;28;20040;-71
2022/08/08 02:58:18;;;;;;;8.02;5.53;;;;;;;;;;5075452;28;20047;-70
2022/08/08 03:00:53;;;;;;;7.10;5.32;;;;;;;;;;5089854;28;20391;-70
2022/08/08 03:03:31;;;;;;;6.47;5.30;;;;;;;;;;5094076;28;20046;-71
2022/08/08 03:06:00;;;;;;;6.95;5.07;;;;;;;;;;5074985;28;20408;-70
2022/08/08 03:08:26;;;;;;;6.97;5.35;;;;;;;;;;5093583;28;20115;-70
2022/08/08 03:11:11;;;;;;;7.75;5.68;;;;;;;;;;5093430;28;20527;-71
2022/08/08 03:13:56;;;;;;;6.63;5.35;;;;;;;;;;5075666;28;20381;-70
2022/08/08 03:16:37;;;;;;;7.85;5.32;;;;;;;;;;5093582;28;20415;-70
2022/08/08 03:19:15;;;;;;;6.80;5.20;;;;;;;;;;5075177;28;20043;-71
2022/08/08 03:21:41;;;;;;;7.88;5.30;;;;;;;;;;5093150;28;20039;-70
2022/08/08 03:24:07;;;;;;;7.57;4.97;;;;;;;;;;5092695;28;20036;-70
2022/08/08 03:26:38;;;;;;;6.72;5.20;;;;;;;;;;5074848;28;20050;-71
2022/08/08 03:29:07;;;;;;;9.55;6.05;;;;;;;;;;5081843;28;20073;-70
2022/08/08 03:34:18;;;;;;;9.35;5.95;;;;;;;;;;5074894;28;20036;-70
2022/08/08 03:36:44;;;;;;;10.30;6.00;;;;;;;;;;5074301;28;20043;-70
2022/08/08 03:39:11;;;;;;;10.25;5.65;;;;;;;;;;5078444;28;20047;-70
2022/08/08 03:41:37;;;;;;;8.88;6.10;;;;;;;;;;5075003;28;20522;-70
2022/08/08 03:44:03;;;;;;;8.27;5.90;;;;;;;;;;5074569;28;20532;-70
2022/08/08 03:46:29;;;;;;;7.53;4.78;;;;;;;;;;5074530;28;20051;-70
2022/08/08 03:49:00;;;;;;;10.07;4.75;;;;;;;;;;5074500;28;20032;-70
2022/08/08 03:51:26;;;;;;;6.20;4.43;;;;;;;;;;5093062;28;20135;-70
2022/08/08 03:53:55;;;;;;;7.43;4.95;;;;;;;;;;5092066;28;20058;-71
2022/08/08 03:56:22;;;;;;;8.85;5.97;;;;;;;;;;5092722;28;20044;-71
2022/08/08 03:58:49;;;;;;;9.23;5.07;;;;;;;;;;5074356;28;20047;-72
2022/08/08 04:01:15;;;;;;;6.93;4.45;;;;;;;;;;5067788;28;20039;-71
2022/08/08 04:03:44;;;;;;;5.45;3.78;;;;;;;;;;5103250;28;20040;-72
2022/08/08 04:06:10;;;;;;;10.65;5.35;;;;;;;;;;5080468;28;20647;-72
2022/08/08 04:08:37;;;;;;;7.75;5.30;;;;;;;;;;5075600;28;20036;-71
2022/08/08 04:11:04;;;;;;;7.68;4.97;;;;;;;;;;5063991;28;20088;-72
2022/08/08 04:13:30;;;;;;;7.53;4.72;;;;;;;;;;5075552;28;20524;-71
2022/08/08 04:15:56;;;;;;;8.13;5.18;;;;;;;;;;5072959;28;20170;-71
2022/08/08 04:18:22;;;;;;;10.32;6.00;;;;;;;;;;5077443;28;20044;-70
2022/08/08 04:20:48;;;;;;;8.50;5.93;;;;;;;;;;5072512;28;20068;-70
2022/08/08 04:23:14;;;;;;;10.43;5.82;;;;;;;;;;5078396;28;20085;-70
2022/08/08 04:25:41;;;;;;;10.70;6.40;;;;;;;;;;5075067;28;20083;-70
2022/08/08 04:28:07;;;;;;;9.32;6.05;;;;;;;;;;5092825;28;20061;-70
2022/08/08 04:30:33;;;;;;;10.07;5.70;;;;;;;;;;5075101;28;20056;-70
2022/08/08 04:32:59;;;;;;;8.93;6.30;;;;;;;;;;5073608;28;20048;-71
2022/08/08 04:35:26;;;;;;;7.15;4.97;;;;;;;;;;5076436;28;20040;-71
2022/08/08 04:37:53;;;;;;;8.48;5.68;;;;;;;;;;5056985;28;20047;-71
2022/08/08 04:40:19;;;;;;;9.55;6.85;;;;;;;;;;5069070;28;20048;-71
2022/08/08 04:42:46;;;;;;;8.77;6.43;;;;;;;;;;5092182;28;20084;-70
2022/08/08 04:45:13;;;;;;;7.70;5.63;;;;;;;;;;5073602;28;20040;-71
2022/08/08 04:47:39;;;;;;;9.10;5.93;;;;;;;;;;5093625;28;20488;-70
2022/08/08 04:50:05;;;;;;;7.65;5.53;;;;;;;;;;5077707;28;20043;-70
2022/08/08 04:52:31;;;;;;;6.55;4.85;;;;;;;;;;5095870;28;20031;-71
2022/08/08 04:54:58;;;;;;;12.90;7.38;;;;;;;;;;5061309;28;20040;-70
2022/08/08 04:57:24;;;;;;;9.98;6.25;;;;;;;;;;5060413;28;20047;-71
2022/08/08 04:59:50;;;;;;;8.93;5.68;;;;;;;;;;5096016;28;20575;-71
2022/08/08 05:02:16;;;;;;;7.05;5.55;;;;;;;;;;5077319;28;20035;-71
2022/08/08 05:04:42;;;;;;;8.63;5.82;;;;;;;;;;5077962;28;20139;-71
2022/08/08 05:07:09;;;;;;;7.80;5.15;;;;;;;;;;5060408;28;20123;-71
2022/08/08 05:09:35;;;;;;;6.45;4.50;;;;;;;;;;5095731;28;20454;-71
2022/08/08 05:12:02;;;;;;;9.77;5.50;;;;;;;;;;5077645;28;20036;-71
2022/08/08 05:14:28;;;;;;;7.05;4.32;;;;;;;;;;5077546;28;20043;-71
2022/08/08 05:16:55;;;;;;;7.35;5.07;;;;;;;;;;5077252;28;20134;-71
2022/08/08 05:19:21;;;;;;;6.88;4.85;;;;;;;;;;5076851;28;20048;-71
2022/08/08 05:21:48;;;;;;;9.70;5.75;;;;;;;;;;5077595;28;20396;-71
2022/08/08 05:24:15;;;;;;;11.15;6.25;;;;;;;;;;5076816;28;20116;-71
2022/08/08 05:26:45;;;;;;;9.80;5.65;;;;;;;;;;5095376;28;20036;-71
2022/08/08 05:29:11;;;;;;;8.15;5.35;;;;;;;;;;5084647;28;20067;-71
2022/08/08 05:31:37;;;;;;;8.35;4.70;;;;;;;;;;5095614;28;20040;-72
2022/08/08 05:34:15;;;;;;;11.93;6.57;;;;;;;;;;5066812;28;20046;-72
2022/08/08 05:36:41;;;;;;;14.70;7.07;;;;;;;;;;5095003;28;20044;-72
2022/08/08 05:39:08;;;;;;;12.93;8.10;;;;;;;;;;5062771;28;20540;-72
2022/08/08 05:41:35;;;;;;;18.58;8.10;;;;;;;;;;5095350;28;20040;-72
2022/08/08 05:44:19;;;;;;;14.90;8.57;;;;;;;;;;5094926;28;20035;-73
2022/08/08 05:46:46;;;;;;;19.23;9.95;;;;;;;;;;5076850;28;20128;-72
2022/08/08 05:49:13;;;;;;;16.00;9.07;;;;;;;;;;5076523;28;20389;-72
2022/08/08 05:51:40;;;;;;;12.48;8.70;;;;;;;;;;5076889;28;20036;-72
2022/08/08 05:54:07;;;;;;;13.88;7.18;;;;;;;;;;5059873;28;20039;-73
2022/08/08 05:56:37;;;;;;;15.55;8.50;;;;;;;;;;5059802;28;20044;-73
2022/08/08 05:59:05;;;;;;;16.15;8.55;;;;;;;;;;5076441;28;20051;-72
2022/08/08 06:01:32;;;;;;;15.57;8.48;;;;;;;;;;5076228;28;20089;-73
2022/08/08 06:04:01;;;;;;;12.07;8.15;;;;;;;;;;5076789;28;20052;-73
2022/08/08 06:06:29;;;;;;;12.75;7.68;;;;;;;;;;5094572;28;20373;-73
2022/08/08 06:08:58;;;;;;;12.48;7.35;;;;;;;;;;5059967;28;20488;-73
2022/08/08 06:11:26;;;;;;;11.27;6.40;;;;;;;;;;5075876;28;20040;-73
2022/08/08 06:13:52;;;;;;;12.77;5.93;;;;;;;;;;5076454;28;20055;-73
2022/08/08 06:16:19;;;;;;;9.90;5.20;;;;;;;;;;5094084;28;20072;-73
2022/08/08 06:18:47;;;;;;;10.00;4.93;;;;;;;;;;5076159;28;20036;-73
2022/08/08 06:21:14;;;;;;;8.45;4.78;;;;;;;;;;5075931;28;20036;-73
2022/08/08 06:23:40;;;;;;;8.60;4.40;;;;;;;;;;5076502;28;20046;-73
2022/08/08 06:26:09;;;;;;;8.90;4.28;;;;;;;;;;5076097;28;20052;-73
2022/08/08 06:28:41;;;;;;;8.55;3.78;;;;;;;;;;5083117;28;20071;-73
2022/08/08 06:31:09;;;;;;;8.73;3.55;;;;;;;;;;5076124;28;20079;-74
2022/08/08 06:33:44;;;;;;;7.32;3.45;;;;;;;;;;5058698;28;20039;-75
2022/08/08 06:36:11;;;;;;;7.88;2.88;;;;;;;;;;5094442;28;20496;-74
2022/08/08 06:38:40;;;;;;;7.15;2.80;;;;;;;;;;5061401;28;20045;-75
2022/08/08 06:41:11;;;;;;;6.18;2.05;;;;;;;;;;5076204;28;20434;-74
2022/08/08 06:43:40;;;;;;;4.82;1.98;;;;;;;;;;5075226;28;20115;-75
2022/08/08 06:46:07;;;;;;;6.05;2.20;;;;;;;;;;5075760;28;20075;-74
2022/08/08 06:48:34;;;;;;;6.53;2.47;;;;;;;;;;5075252;28;20032;-74
2022/08/08 06:51:01;;;;;;;6.40;1.90;;;;;;;;;;5075946;28;20400;-75
2022/08/08 06:53:28;;;;;;;5.78;2.40;;;;;;;;;;5075208;28;20051;-75
2022/08/08 06:55:54;;;;;;;5.00;2.13;;;;;;;;;;5075544;28;20115;-75
2022/08/08 06:58:20;;;;;;;4.22;2.15;;;;;;;;;;5075362;28;20496;-75
2022/08/08 07:00:48;;;;;;;6.55;2.00;;;;;;;;;;5075429;28;20036;-75
2022/08/08 07:03:26;;;;;;;4.45;1.65;;;;;;;;;;5093969;28;20072;-74
2022/08/08 07:05:55;;;;;;;6.40;2.00;;;;;;;;;;5075443;28;20075;-74
2022/08/08 07:08:28;;;;;;;5.10;1.90;;;;;;;;;;5075180;28;20039;-74
2022/08/08 07:10:58;;;;;;;7.28;2.03;;;;;;;;;;5092811;28;20040;-74
2022/08/08 07:13:27;;;;;;;5.68;2.42;;;;;;;;;;5074900;28;20039;-74
2022/08/08 07:16:03;;;;;;;5.72;2.55;;;;;;;;;;5075342;28;20039;-74
2022/08/08 07:18:29;;;;;;;5.60;2.20;;;;;;;;;;5058336;28;20443;-74
2022/08/08 07:20:58;;;;;;;5.53;2.00;;;;;;;;;;5058945;28;20411;-75
2022/08/08 07:23:44;;;;;;;5.63;2.00;;;;;;;;;;5074979;28;20044;-74
2022/08/08 07:26:12;;;;;;;6.63;1.90;;;;;;;;;;5058247;28;20063;-74
2022/08/08 07:28:38;;;;;;;7.38;1.95;;;;;;;;;;5099939;28;20066;-75
2022/08/08 07:31:04;;;;;;;6.45;1.73;;;;;;;;;;5074758;28;20493;-75
2022/08/08 07:33:31;;;;;;;4.28;1.40;;;;;;;;;;5074413;28;20047;-75
2022/08/08 07:35:59;;;;;;;4.40;1.38;;;;;;;;;;5075296;28;20389;-75
2022/08/08 07:38:27;;;;;;;6.07;1.88;;;;;;;;;;5060595;28;20485;-75
2022/08/08 07:40:57;;;;;;;5.90;1.80;;;;;;;;;;5054822;28;20040;-75
2022/08/08 07:43:23;;;;;;;4.20;1.35;;;;;;;;;;5067351;28;20404;-74
2022/08/08 07:45:50;;;;;;;5.07;1.23;;;;;;;;;;5074411;28;20043;-74
2022/08/08 07:48:16;;;;;;;9.02;1.35;;;;;;;;;;5074496;28;20040;-74
2022/08/08 07:50:43;;;;;;;5.03;1.30;;;;;;;;;;5057628;28;20109;-74
2022/08/08 07:53:28;;;;;;;4.35;1.38;;;;;;;;;;5092846;28;20138;-74
2022/08/08 07:55:57;;;;;;;6.18;1.73;;;;;;;;;;5074263;28;20028;-74
2022/08/08 07:58:30;;;;;;;3.90;1.27;;;;;;;;;;5074341;28;20101;-75
2022/08/08 08:01:06;;;;;;;5.18;1.30;;;;;;;;;;5074213;28;20042;-75
2022/08/08 08:03:45;;;;;;;3.92;1.50;;;;;;;;;;5074263;28;20500;-74
2022/08/08 08:06:12;;;;;;;6.13;1.40;;;;;;;;;;5074207;28;20044;-74
2022/08/08 08:08:40;;;;;;;4.25;1.30;;;;;;;;;;5057351;28;20089;-75
2022/08/08 08:11:19;;;;;;;5.50;1.30;;;;;;;;;;5074176;28;20044;-75
2022/08/08 08:14:04;;;;;;;3.88;1.30;;;;;;;;;;5073983;28;20036;-76
2022/08/08 08:16:33;;;;;;;3.22;1.20;;;;;;;;;;5073591;28;20127;-75
2022/08/08 08:19:04;;;;;;;4.95;1.10;;;;;;;;;;5074389;28;20404;-75
2022/08/08 08:21:33;;;;;;;4.47;1.20;;;;;;;;;;5073465;28;20078;-76
2022/08/08 08:23:59;;;;;;;3.88;1.20;;;;;;;;;;5074272;28;20047;-75
2022/08/08 08:26:25;;;;;;;3.10;1.00;;;;;;;;;;5057358;28;20040;-75
2022/08/08 08:28:55;;;;;;;4.90;1.35;;;;;;;;;;5064232;28;20035;-75
2022/08/08 08:31:21;;;;;;;2.70;0.98;;;;;;;;;;5074041;28;20048;-75
2022/08/08 08:33:47;;;;;;;2.70;1.13;;;;;;;;;;5092096;28;20452;-76
2022/08/08 08:36:14;;;;;;;3.13;0.80;;;;;;;;;;5074200;28;20508;-76
2022/08/08 08:38:40;;;;;;;3.00;0.75;;;;;;;;;;5059197;28;20048;-76
2022/08/08 08:41:07;;;;;;;3.15;0.82;;;;;;;;;;5073935;28;20056;-75
2022/08/08 08:43:34;;;;;;;2.60;0.80;;;;;;;;;;5073901;28;20508;-75
2022/08/08 08:46:01;;;;;;;2.15;0.70;;;;;;;;;;5074250;28;20610;-76
2022/08/08 08:48:27;;;;;;;3.75;0.90;;;;;;;;;;5073893;28;20040;-75
2022/08/08 08:50:54;;;;;;;3.63;0.82;;;;;;;;;;5056569;28;20040;-75
2022/08/08 08:53:21;;;;;;;2.60;0.80;;;;;;;;;;5092592;28;20044;-75
2022/08/08 08:55:48;;;;;;;3.10;0.70;;;;;;;;;;5073423;28;20048;-74
2022/08/08 08:58:28;;;;;;;3.03;0.70;;;;;;;;;;5057409;28;20040;-74
2022/08/08 09:00:54;;;;;;;1.85;0.70;;;;;;;;;;5073451;28;20459;-74
2022/08/08 09:03:23;;;;;;;2.97;0.70;;;;;;;;;;5092027;28;20048;-74
2022/08/08 09:05:49;;;;;;;1.67;0.60;;;;;;;;;;5073457;28;20485;-76
2022/08/08 09:08:16;;;;;;;3.90;0.80;;;;;;;;;;5057361;28;20040;-76
2022/08/08 09:10:43;;;;;;;4.47;0.68;;;;;;;;;;5073286;28;20040;-73
2022/08/08 09:13:09;;;;;;;6.05;0.88;;;;;;;;;;5092106;28;20111;-73
2022/08/08 09:15:35;;;;;;;2.33;0.73;;;;;;;;;;5056672;28;20040;-76
2022/08/08 09:18:03;;;;;;;2.28;0.63;;;;;;;;;;5091976;28;20075;-76
2022/08/08 09:20:29;;;;;;;2.53;0.75;;;;;;;;;;5073538;28;20044;-73
2022/08/08 09:22:55;;;;;;;2.60;0.63;;;;;;;;;;5073201;28;20048;-75
2022/08/08 09:25:22;;;;;;;1.45;0.60;;;;;;;;;;5073833;28;20127;-76
2022/08/08 09:27:48;;;;;;;2.00;0.60;;;;;;;;;;5080388;28;20488;-75
2022/08/08 09:30:15;;;;;;;1.50;0.50;;;;;;;;;;5073456;28;20048;-76
2022/08/08 09:32:42;;;;;;;1.73;0.50;;;;;;;;;;5073016;28;20048;-75
2022/08/08 09:35:10;;;;;;;1.40;0.60;;;;;;;;;;5060433;28;20044;-75
2022/08/08 09:37:42;;;;;;;1.77;0.70;;;;;;;;;;5069865;28;20052;-75
2022/08/08 09:40:09;;;;;;;1.98;0.68;;;;;;;;;;5067715;28;20048;-76
2022/08/08 09:42:40;;;;;;;2.13;0.68;;;;;;;;;;5046652;28;20093;-72
2022/08/08 09:45:06;;;;;;;2.10;0.60;;;;;;;;;;5060360;28;20040;-76
2022/08/08 09:47:33;;;;;;;1.50;0.50;;;;;;;;;;5076570;28;20036;-75
2022/08/08 09:50:02;;;;;;;1.42;0.60;;;;;;;;;;5076845;28;20047;-75
2022/08/08 09:52:31;;;;;;;1.98;0.60;;;;;;;;;;5094934;28;20036;-73
2022/08/08 09:54:57;;;;;;;1.80;0.70;;;;;;;;;;5076680;28;20044;-73
2022/08/08 09:57:32;;;;;;;2.85;0.98;;;;;;;;;;5076783;28;20040;-72
2022/08/08 09:59:59;;;;;;;2.17;0.80;;;;;;;;;;5059790;28;20040;-72
2022/08/08 10:02:32;;;;;;;1.83;0.70;;;;;;;;;;5076263;28;20082;-73
2022/08/08 10:05:06;;;;;;;3.45;0.75;;;;;;;;;;5076583;28;20389;-73
2022/08/08 10:07:32;;;;;;;2.42;0.70;;;;;;;;;;5076302;28;20040;-72
2022/08/08 10:09:59;;;;;;;3.90;0.80;;;;;;;;;;5076566;28;20081;-72
2022/08/08 10:12:38;;;;;;;2.78;0.80;;;;;;;;;;5076756;28;20496;-71
2022/08/08 10:15:06;;;;;;;3.03;0.90;;;;;;;;;;5076354;28;20036;-73
2022/08/08 10:17:32;;;;;;;2.10;0.75;;;;;;;;;;5076175;28;20043;-74
2022/08/08 10:20:00;;;;;;;1.92;0.70;;;;;;;;;;5059445;28;20040;-73
2022/08/08 10:22:29;;;;;;;2.22;0.70;;;;;;;;;;5094720;28;20047;-71
2022/08/08 10:24:59;;;;;;;2.28;0.70;;;;;;;;;;5093983;28;20388;-73
2022/08/08 10:27:28;;;;;;;2.45;0.80;;;;;;;;;;5080533;28;20114;-71
2022/08/08 10:30:00;;;;;;;3.55;0.80;;;;;;;;;;5078051;28;20499;-72
2022/08/08 10:32:39;;;;;;;2.13;0.70;;;;;;;;;;5076066;28;20044;-75
2022/08/08 10:35:05;;;;;;;3.45;0.98;;;;;;;;;;5075689;28;20040;-75
2022/08/08 10:37:32;;;;;;;2.63;0.77;;;;;;;;;;5069523;28;20044;-75
2022/08/08 10:39:59;;;;;;;2.28;0.88;;;;;;;;;;5086467;28;20043;-76
2022/08/08 10:42:35;;;;;;;3.47;1.00;;;;;;;;;;5056012;28;20040;-71
2022/08/08 10:45:02;;;;;;;2.38;0.80;;;;;;;;;;5066665;28;20068;-75
2022/08/08 10:47:28;;;;;;;2.85;0.77;;;;;;;;;;5076009;28;20489;-73
2022/08/08 10:49:56;;;;;;;3.00;0.90;;;;;;;;;;5093417;28;20032;-72
2022/08/08 10:52:25;;;;;;;2.75;0.80;;;;;;;;;;5075621;28;20401;-71
2022/08/08 10:54:56;;;;;;;2.45;1.00;;;;;;;;;;5075433;28;20105;-71
2022/08/08 10:57:22;;;;;;;1.70;0.85;;;;;;;;;;5075555;28;20128;-72
2022/08/08 10:59:56;;;;;;;2.92;0.98;;;;;;;;;;5075568;28;20040;-74
2022/08/08 11:02:26;;;;;;;3.75;1.00;;;;;;;;;;5075384;28;20044;-73
2022/08/08 11:04:53;;;;;;;2.78;1.00;;;;;;;;;;5075093;28;20046;-74
2022/08/08 11:07:25;;;;;;;3.85;1.05;;;;;;;;;;5093713;28;20040;-72
2022/08/08 11:09:51;;;;;;;2.42;1.00;;;;;;;;;;5075350;28;20430;-72
2022/08/08 11:12:17;;;;;;;2.58;1.00;;;;;;;;;;5093436;28;20078;-72
2022/08/08 11:14:50;;;;;;;3.45;1.00;;;;;;;;;;5075282;28;20032;-72
2022/08/08 11:17:22;;;;;;;2.65;1.15;;;;;;;;;;5066896;28;20036;-74
2022/08/08 11:19:48;;;;;;;5.07;1.20;;;;;;;;;;5074974;28;20040;-74
2022/08/08 11:22:15;;;;;;;2.45;1.15;;;;;;;;;;5075133;28;20048;-71
2022/08/08 11:24:42;;;;;;;4.05;1.20;;;;;;;;;;5075131;28;20096;-74
2022/08/08 11:27:09;;;;;;;4.18;1.20;;;;;;;;;;5094849;28;20101;-74
2022/08/08 11:29:35;;;;;;;2.65;1.00;;;;;;;;;;5097747;28;20077;-74
2022/08/08 11:32:03;;;;;;;3.67;1.20;;;;;;;;;;5092770;28;20051;-74
2022/08/08 11:34:32;;;;;;;4.35;1.40;;;;;;;;;;5058237;28;20048;-72
2022/08/08 11:37:00;;;;;;;2.97;1.10;;;;;;;;;;5072622;28;20048;-72
2022/08/08 11:39:26;;;;;;;3.92;1.40;;;;;;;;;;5062950;28;20040;-72
2022/08/08 11:41:52;;;;;;;4.15;1.38;;;;;;;;;;5074711;28;20044;-72
2022/08/08 11:44:19;;;;;;;5.75;1.42;;;;;;;;;;5093011;28;20032;-71
2022/08/08 11:46:45;;;;;;;4.25;1.10;;;;;;;;;;5058527;28;20067;-74
2022/08/08 11:49:12;;;;;;;2.92;1.17;;;;;;;;;;5074178;28;20050;-72
2022/08/08 11:51:38;;;;;;;4.43;1.23;;;;;;;;;;5058090;28;20036;-72
2022/08/08 11:54:05;;;;;;;2.40;1.00;;;;;;;;;;5057571;28;20040;-72
2022/08/08 11:56:33;;;;;;;3.38;1.10;;;;;;;;;;5092428;28;20051;-72
2022/08/08 11:59:06;;;;;;;3.30;1.20;;;;;;;;;;5074094;28;20058;-71
2022/08/08 12:01:32;;;;;;;4.68;1.10;;;;;;;;;;5074503;28;20056;-72
2022/08/08 12:03:59;;;;;;;6.03;1.40;;;;;;;;;;5074106;28;20040;-74
2022/08/08 12:06:25;;;;;;;3.42;1.33;;;;;;;;;;5074226;28;20040;-72
2022/08/08 12:08:52;;;;;;;3.70;1.20;;;;;;;;;;5092850;28;20047;-71
2022/08/08 12:11:18;;;;;;;4.00;1.20;;;;;;;;;;5073940;28;20032;-70
2022/08/08 12:13:48;;;;;;;2.40;1.02;;;;;;;;;;5057900;28;20492;-74
2022/08/08 12:16:15;;;;;;;4.88;1.17;;;;;;;;;;5073818;28;20044;-71
2022/08/08 12:18:44;;;;;;;2.53;1.17;;;;;;;;;;5092621;28;20079;-73
2022/08/08 12:21:23;;;;;;;4.45;1.10;;;;;;;;;;5073660;28;20109;-74
2022/08/08 12:23:49;;;;;;;3.83;1.02;;;;;;;;;;5074336;28;20537;-74
2022/08/08 12:26:23;;;;;;;5.28;1.23;;;;;;;;;;5072380;28;20136;-73
2022/08/08 12:28:57;;;;;;;5.15;0.90;;;;;;;;;;5081329;28;20115;-74
2022/08/08 12:31:33;;;;;;;2.65;1.10;;;;;;;;;;5053408;28;20098;-73
2022/08/08 12:33:59;;;;;;;4.68;1.48;;;;;;;;;;5061198;28;20047;-75
2022/08/08 12:36:26;;;;;;;4.47;1.30;;;;;;;;;;5057367;28;20036;-72
2022/08/08 12:38:52;;;;;;;3.47;1.20;;;;;;;;;;5057470;28;20033;-75
2022/08/08 12:41:21;;;;;;;3.88;1.15;;;;;;;;;;5017626;28;20037;-76
2022/08/08 12:43:48;;;;;;;6.65;1.17;;;;;;;;;;5067446;28;20041;-74
2022/08/08 12:46:15;;;;;;;2.78;1.10;;;;;;;;;;5052710;28;20052;-75
2022/08/08 12:48:51;;;;;;;5.15;1.73;;;;;;;;;;5053637;28;20043;-75
2022/08/08 12:51:21;;;;;;;4.75;1.20;;;;;;;;;;5036652;28;20032;-72
2022/08/08 12:53:57;;;;;;;3.15;1.20;;;;;;;;;;5071169;28;20255;-74
2022/08/08 12:56:34;;;;;;;28.83;2.15;;;;;;;;;;5039817;28;20048;-74
2022/08/08 12:59:00;;;;;;;11.30;1.60;;;;;;;;;;5071523;28;20397;-74
2022/08/08 13:01:36;;;;;;;4.20;1.08;;;;;;;;;;5071514;28;20392;-74
2022/08/08 13:04:13;;;;;;;2.80;1.00;;;;;;;;;;5053519;28;20074;-70
2022/08/08 13:06:39;;;;;;;3.70;0.85;;;;;;;;;;5053180;28;20037;-70
2022/08/08 13:09:08;;;;;;;3.80;1.00;;;;;;;;;;5055959;28;20622;-69
2022/08/08 13:11:39;;;;;;;2.28;0.98;;;;;;;;;;5057704;28;20029;-69
2022/08/08 13:14:15;;;;;;;2.58;0.90;;;;;;;;;;5040595;28;20036;-70
2022/08/08 13:16:42;;;;;;;2.22;1.00;;;;;;;;;;5056654;28;20400;-69
2022/08/08 13:19:09;;;;;;;2.85;1.00;;;;;;;;;;5057156;28;20043;-72
2022/08/08 13:21:47;;;;;;;1.95;0.90;;;;;;;;;;5039881;28;20495;-70
2022/08/08 13:24:14;;;;;;;3.10;0.90;;;;;;;;;;5057186;28;20051;-72
2022/08/08 13:26:40;;;;;;;3.67;1.30;;;;;;;;;;5074206;28;20121;-71
2022/08/08 13:29:13;;;;;;;3.08;1.00;;;;;;;;;;5066213;28;20041;-69
2022/08/08 13:31:46;;;;;;;2.88;1.00;;;;;;;;;;5095422;28;20028;-71
2022/08/08 13:34:22;;;;;;;2.33;1.02;;;;;;;;;;5077114;28;20518;-70
2022/08/08 13:36:50;;;;;;;2.90;1.08;;;;;;;;;;5076142;28;20484;-70
2022/08/08 13:39:16;;;;;;;3.65;1.33;;;;;;;;;;5063509;28;20126;-71
2022/08/08 13:41:43;;;;;;;3.67;1.20;;;;;;;;;;5095160;28;20085;-69
2022/08/08 13:44:10;;;;;;;3.28;1.23;;;;;;;;;;5081100;28;20123;-70
2022/08/08 13:46:36;;;;;;;3.60;1.30;;;;;;;;;;5076112;28;20040;-70
2022/08/08 13:49:05;;;;;;;4.72;1.35;;;;;;;;;;5043613;28;20508;-70
2022/08/08 13:51:31;;;;;;;2.92;1.30;;;;;;;;;;5076178;28;20487;-69
2022/08/08 13:53:57;;;;;;;4.35;1.23;;;;;;;;;;5076609;28;20122;-70
2022/08/08 13:56:34;;;;;;;3.40;0.90;;;;;;;;;;5059772;28;20048;-70
2022/08/08 13:59:01;;;;;;;4.15;1.30;;;;;;;;;;5059897;28;20105;-70
2022/08/08 14:01:31;;;;;;;4.55;1.17;;;;;;;;;;5093788;28;20098;-70
2022/08/08 14:03:59;;;;;;;2.40;1.10;;;;;;;;;;5076785;28;20040;-70
2022/08/08 14:06:26;;;;;;;2.55;1.23;;;;;;;;;;5093871;28;20040;-70
2022/08/08 14:08:52;;;;;;;3.25;1.15;;;;;;;;;;5076607;28;20064;-70
2022/08/08 14:11:20;;;;;;;2.97;1.10;;;;;;;;;;5076214;28;20036;-70
2022/08/08 14:13:47;;;;;;;3.75;1.20;;;;;;;;;;5076426;28;20036;-70
2022/08/08 14:16:13;;;;;;;2.33;1.13;;;;;;;;;;5075674;28;20051;-70
2022/08/08 14:18:49;;;;;;;2.67;1.08;;;;;;;;;;5076262;28;20040;-69
2022/08/08 14:21:16;;;;;;;3.40;0.90;;;;;;;;;;5058615;28;20032;-71
2022/08/08 14:23:42;;;;;;;3.40;1.25;;;;;;;;;;5076415;28;20079;-70
2022/08/08 14:26:19;;;;;;;2.97;1.10;;;;;;;;;;5092750;28;20051;-70
2022/08/08 14:28:56;;;;;;;2.67;0.90;;;;;;;;;;5065764;28;20040;-70
2022/08/08 14:31:22;;;;;;;1.75;0.80;;;;;;;;;;5075070;28;20059;-69
2022/08/08 14:33:55;;;;;;;2.22;1.10;;;;;;;;;;5076301;28;20050;-71
2022/08/08 14:36:31;;;;;;;2.75;1.17;;;;;;;;;;5093576;28;20401;-71
2022/08/08 14:38:59;;;;;;;3.55;1.00;;;;;;;;;;5085501;28;20080;-70
2022/08/08 14:41:25;;;;;;;1.83;1.00;;;;;;;;;;5092499;28;20106;-69
2022/08/08 14:43:52;;;;;;;3.95;1.10;;;;;;;;;;5093888;28;20066;-70
2022/08/08 14:46:26;;;;;;;2.00;1.02;;;;;;;;;;5093231;28;20044;-70
2022/08/08 14:48:53;;;;;;;1.83;0.70;;;;;;;;;;5075029;28;20036;-70
2022/08/08 14:51:20;;;;;;;2.35;0.90;;;;;;;;;;5093854;28;20127;-73
2022/08/08 14:53:46;;;;;;;3.63;1.25;;;;;;;;;;5094012;28;20032;-72
2022/08/08 14:56:12;;;;;;;1.67;0.80;;;;;;;;;;5093802;28;20059;-72
2022/08/08 14:58:38;;;;;;;5.53;1.00;;;;;;;;;;5075493;28;20047;-72
2022/08/08 15:01:04;;;;;;;2.25;0.88;;;;;;;;;;5079035;28;20079;-72
2022/08/08 15:03:30;;;;;;;3.55;1.02;;;;;;;;;;5095715;28;20111;-72